首页
METAR-TAF:

METAR-TAF

机场 :

Río Hato, 巴拿马

纬度: 08-22-33N, 经度: 080-07-40W, 海拔: 32米

当前天气观测

该预报发布于42分钟前的14:00 UTC
风速6节,风向西转西北
温度 29°C
气压 1009 hPa
能见度10公里或以上
少量云层高于2000英尺

METAR: MPSM 251400Z 29006KT(E) 9999 FEW020 29/// Q1009

时间: 09:42 (14:42 UTC)

预报

该预报发布于2小时和42分钟前的12:00 UTC
预报有效从25日的 12点(UTC)到 26日的 18点(UTC)
风速6节,风向北转西北
能见度10公里或以上
散云层高于1800英尺
散云层高于9000英尺
短暂存在
从 25日的 17点(UTC)到 25日的 21点(UTC)
风速8节,风向
能見度: 6000
散云层高于1500英尺, 积雨云.
多云层高于8000英尺
雷暴, 雨
短暂存在
从 25日的 21点(UTC)到 25日的 23点(UTC)
能见度10公里或以上
成为
从 26日的 00点(UTC)到 26日的 04点(UTC)
风速节,风向
成为
从 26日的 04点(UTC)到 26日的 10点(UTC)
风速2节,风向多变

TAF: MPSM 251200Z 2512/2618 34006KT 9999 SCT018 SCT090 TEMPO 2517/2521 18008KT 6000 TSRA SCT015CB BKN080 TEMPO 2521/2523 9999 NSW BECMG 2600/2604 00000KT BECMG 2604/2610 VRB02KT

超过4000个机场的气象观测和天气预报(METAR&TAF报告)。

可查询的气象台以黄色和红色小点在地图上表示。

将鼠标移到小点上方,可查看气象台名称。

然后点击查看天气观测和预报。

如需切换地图:点击带黑十字的绿色按钮放大地图;点击带横线的绿色按钮缩小地图;或者点击绿色箭头查看邻近地区的地图。


METAR-TAF: